sensor_id;sensor_type;location;lat;lon;timestamp;pressure;altitude;pressure_sealevel;temperature;humidity
76337;BME280;65157;50.082;18.178;2023-08-24T00:01:30;99478.35;;;17.07;70.22
76337;BME280;65157;50.082;18.178;2023-08-24T00:03:57;99476.67;;;17.06;70.50
76337;BME280;65157;50.082;18.178;2023-08-24T00:06:24;99476.90;;;17.02;70.50
76337;BME280;65157;50.082;18.178;2023-08-24T00:08:50;99473.96;;;17.01;70.35
76337;BME280;65157;50.082;18.178;2023-08-24T00:11:18;99474.94;;;17.00;70.63
76337;BME280;65157;50.082;18.178;2023-08-24T00:13:44;99479.41;;;16.96;70.62
76337;BME280;65157;50.082;18.178;2023-08-24T00:16:12;99481.48;;;16.92;70.82
76337;BME280;65157;50.082;18.178;2023-08-24T00:18:39;99480.33;;;16.90;70.71
76337;BME280;65157;50.082;18.178;2023-08-24T00:21:06;99482.51;;;16.87;70.91
76337;BME280;65157;50.082;18.178;2023-08-24T00:23:32;99485.88;;;16.85;71.00
76337;BME280;65157;50.082;18.178;2023-08-24T00:25:59;99486.21;;;16.82;70.99
76337;BME280;65157;50.082;18.178;2023-08-24T00:28:26;99490.05;;;16.81;71.04
76337;BME280;65157;50.082;18.178;2023-08-24T00:30:52;99489.08;;;16.79;70.87
76337;BME280;65157;50.082;18.178;2023-08-24T00:33:19;99488.18;;;16.79;70.89
76337;BME280;65157;50.082;18.178;2023-08-24T00:35:45;99492.02;;;16.78;71.02
76337;BME280;65157;50.082;18.178;2023-08-24T00:38:12;99493.88;;;16.77;71.05
76337;BME280;65157;50.082;18.178;2023-08-24T00:40:41;99492.61;;;16.74;71.03
76337;BME280;65157;50.082;18.178;2023-08-24T00:43:08;99486.41;;;16.74;70.95
76337;BME280;65157;50.082;18.178;2023-08-24T00:45:35;99484.10;;;16.74;70.79
76337;BME280;65157;50.082;18.178;2023-08-24T00:48:02;99480.64;;;16.72;70.97
76337;BME280;65157;50.082;18.178;2023-08-24T00:50:29;99484.45;;;16.71;70.95
76337;BME280;65157;50.082;18.178;2023-08-24T00:52:56;99484.42;;;16.69;71.11
76337;BME280;65157;50.082;18.178;2023-08-24T00:55:23;99484.90;;;16.66;71.10
76337;BME280;65157;50.082;18.178;2023-08-24T00:57:49;99486.87;;;16.64;71.23
76337;BME280;65157;50.082;18.178;2023-08-24T01:00:16;99484.83;;;16.59;71.27
76337;BME280;65157;50.082;18.178;2023-08-24T01:02:43;99486.45;;;16.57;71.12
76337;BME280;65157;50.082;18.178;2023-08-24T01:05:10;99488.32;;;16.55;71.24
76337;BME280;65157;50.082;18.178;2023-08-24T01:07:39;99488.91;;;16.51;71.39
76337;BME280;65157;50.082;18.178;2023-08-24T01:10:07;99493.26;;;16.47;71.48
76337;BME280;65157;50.082;18.178;2023-08-24T01:12:59;99492.45;;;16.43;71.59
76337;BME280;65157;50.082;18.178;2023-08-24T01:18:00;99491.69;;;16.37;71.64
76337;BME280;65157;50.082;18.178;2023-08-24T01:20:30;99489.84;;;16.36;71.72
76337;BME280;65157;50.082;18.178;2023-08-24T01:23:09;99487.33;;;16.33;72.09
76337;BME280;65157;50.082;18.178;2023-08-24T01:25:48;99488.27;;;16.29;71.99
76337;BME280;65157;50.082;18.178;2023-08-24T01:28:18;99488.59;;;16.27;71.99
76337;BME280;65157;50.082;18.178;2023-08-24T01:30:46;99488.13;;;16.26;72.07
76337;BME280;65157;50.082;18.178;2023-08-24T01:33:13;99486.86;;;16.24;71.88
76337;BME280;65157;50.082;18.178;2023-08-24T01:35:41;99486.80;;;16.24;71.82
76337;BME280;65157;50.082;18.178;2023-08-24T01:38:08;99490.28;;;16.23;72.01
76337;BME280;65157;50.082;18.178;2023-08-24T01:40:48;99491.14;;;16.20;72.12
76337;BME280;65157;50.082;18.178;2023-08-24T01:43:20;99489.30;;;16.18;72.21
76337;BME280;65157;50.082;18.178;2023-08-24T01:45:49;99487.44;;;16.17;72.06
76337;BME280;65157;50.082;18.178;2023-08-24T01:48:16;99486.85;;;16.12;72.16
76337;BME280;65157;50.082;18.178;2023-08-24T01:50:44;99488.32;;;16.11;72.19
76337;BME280;65157;50.082;18.178;2023-08-24T01:53:11;99486.98;;;16.07;72.30
76337;BME280;65157;50.082;18.178;2023-08-24T01:55:38;99484.45;;;16.02;72.12
76337;BME280;65157;50.082;18.178;2023-08-24T01:58:05;99482.42;;;15.98;72.22
76337;BME280;65157;50.082;18.178;2023-08-24T02:00:31;99482.10;;;15.94;72.18
76337;BME280;65157;50.082;18.178;2023-08-24T02:02:58;99483.89;;;15.91;72.45
76337;BME280;65157;50.082;18.178;2023-08-24T02:05:25;99485.21;;;15.87;72.68
76337;BME280;65157;50.082;18.178;2023-08-24T02:07:52;99485.23;;;15.83;72.83
76337;BME280;65157;50.082;18.178;2023-08-24T02:10:18;99485.31;;;15.82;72.68
76337;BME280;65157;50.082;18.178;2023-08-24T02:12:45;99486.42;;;15.81;72.69
76337;BME280;65157;50.082;18.178;2023-08-24T02:15:11;99480.50;;;15.79;72.72
76337;BME280;65157;50.082;18.178;2023-08-24T02:17:39;99484.84;;;15.78;72.98
76337;BME280;65157;50.082;18.178;2023-08-24T02:20:07;99484.58;;;15.73;72.96
76337;BME280;65157;50.082;18.178;2023-08-24T02:22:34;99483.92;;;15.69;73.27
76337;BME280;65157;50.082;18.178;2023-08-24T02:25:02;99481.27;;;15.66;73.25
76337;BME280;65157;50.082;18.178;2023-08-24T02:27:29;99479.83;;;15.63;73.18
76337;BME280;65157;50.082;18.178;2023-08-24T02:29:55;99477.97;;;15.62;73.17
76337;BME280;65157;50.082;18.178;2023-08-24T02:32:24;99478.06;;;15.60;73.15
76337;BME280;65157;50.082;18.178;2023-08-24T02:34:52;99479.83;;;15.58;73.39
76337;BME280;65157;50.082;18.178;2023-08-24T02:37:19;99481.20;;;15.52;73.33
76337;BME280;65157;50.082;18.178;2023-08-24T02:39:45;99479.33;;;15.48;73.36
76337;BME280;65157;50.082;18.178;2023-08-24T02:42:12;99473.70;;;15.43;73.86
76337;BME280;65157;50.082;18.178;2023-08-24T02:44:38;99474.36;;;15.38;73.57
76337;BME280;65157;50.082;18.178;2023-08-24T02:47:05;99474.02;;;15.35;73.67
76337;BME280;65157;50.082;18.178;2023-08-24T02:49:32;99475.45;;;15.32;73.59
76337;BME280;65157;50.082;18.178;2023-08-24T02:51:58;99479.38;;;15.28;73.55
76337;BME280;65157;50.082;18.178;2023-08-24T02:54:25;99481.98;;;15.26;73.55
76337;BME280;65157;50.082;18.178;2023-08-24T02:56:53;99479.98;;;15.24;73.46
76337;BME280;65157;50.082;18.178;2023-08-24T02:59:20;99476.23;;;15.21;73.67
76337;BME280;65157;50.082;18.178;2023-08-24T03:01:46;99477.76;;;15.19;73.80
76337;BME280;65157;50.082;18.178;2023-08-24T03:04:13;99476.64;;;15.17;73.93
76337;BME280;65157;50.082;18.178;2023-08-24T03:06:39;99480.45;;;15.15;74.15
76337;BME280;65157;50.082;18.178;2023-08-24T03:09:06;99481.09;;;15.14;74.30
76337;BME280;65157;50.082;18.178;2023-08-24T03:11:33;99479.57;;;15.10;74.57
76337;BME280;65157;50.082;18.178;2023-08-24T03:13:59;99481.83;;;15.07;74.85
76337;BME280;65157;50.082;18.178;2023-08-24T03:16:26;99483.34;;;15.03;74.98
76337;BME280;65157;50.082;18.178;2023-08-24T03:18:53;99480.68;;;15.00;74.65
76337;BME280;65157;50.082;18.178;2023-08-24T03:21:20;99477.75;;;14.98;74.71
76337;BME280;65157;50.082;18.178;2023-08-24T03:23:47;99478.95;;;14.96;74.74
76337;BME280;65157;50.082;18.178;2023-08-24T03:26:13;99477.59;;;14.94;74.73
76337;BME280;65157;50.082;18.178;2023-08-24T03:28:41;99478.71;;;14.93;74.63
76337;BME280;65157;50.082;18.178;2023-08-24T03:31:07;99482.29;;;14.93;74.78
76337;BME280;65157;50.082;18.178;2023-08-24T03:33:34;99481.23;;;14.90;75.04
76337;BME280;65157;50.082;18.178;2023-08-24T03:36:01;99486.66;;;14.88;74.99
76337;BME280;65157;50.082;18.178;2023-08-24T03:38:29;99486.66;;;14.88;74.88
76337;BME280;65157;50.082;18.178;2023-08-24T03:41:03;99487.45;;;14.86;74.92
76337;BME280;65157;50.082;18.178;2023-08-24T03:43:33;99490.03;;;14.85;74.96
76337;BME280;65157;50.082;18.178;2023-08-24T03:46:01;99494.69;;;14.85;75.02
76337;BME280;65157;50.082;18.178;2023-08-24T03:48:28;99499.02;;;14.83;75.10
76337;BME280;65157;50.082;18.178;2023-08-24T03:50:55;99496.95;;;14.82;75.00
76337;BME280;65157;50.082;18.178;2023-08-24T03:53:22;99496.80;;;14.82;75.08
76337;BME280;65157;50.082;18.178;2023-08-24T03:55:51;99491.71;;;14.81;75.01
76337;BME280;65157;50.082;18.178;2023-08-24T03:58:18;99495.79;;;14.81;75.07
76337;BME280;65157;50.082;18.178;2023-08-24T04:00:45;99494.66;;;14.79;75.31
76337;BME280;65157;50.082;18.178;2023-08-24T04:03:12;99497.11;;;14.79;75.39
76337;BME280;65157;50.082;18.178;2023-08-24T04:05:41;99498.48;;;14.77;75.65
76337;BME280;65157;50.082;18.178;2023-08-24T04:08:07;99501.48;;;14.74;75.60
76337;BME280;65157;50.082;18.178;2023-08-24T04:10:34;99500.67;;;14.69;75.59
76337;BME280;65157;50.082;18.178;2023-08-24T04:13:01;99501.61;;;14.65;75.71
76337;BME280;65157;50.082;18.178;2023-08-24T04:15:28;99507.77;;;14.63;75.96
76337;BME280;65157;50.082;18.178;2023-08-24T04:17:55;99507.45;;;14.62;75.47
76337;BME280;65157;50.082;18.178;2023-08-24T04:20:22;99510.08;;;14.63;75.57
76337;BME280;65157;50.082;18.178;2023-08-24T04:22:49;99512.98;;;14.62;75.74
76337;BME280;65157;50.082;18.178;2023-08-24T04:25:16;99512.86;;;14.61;75.54
76337;BME280;65157;50.082;18.178;2023-08-24T04:27:43;99513.42;;;14.61;75.73
76337;BME280;65157;50.082;18.178;2023-08-24T04:30:12;99502.11;;;14.56;75.90
76337;BME280;65157;50.082;18.178;2023-08-24T04:32:38;99511.92;;;14.59;75.78
76337;BME280;65157;50.082;18.178;2023-08-24T04:35:05;99509.42;;;14.59;75.95
76337;BME280;65157;50.082;18.178;2023-08-24T04:37:33;99506.21;;;14.56;76.15
76337;BME280;65157;50.082;18.178;2023-08-24T04:39:59;99507.70;;;14.55;76.69
76337;BME280;65157;50.082;18.178;2023-08-24T04:42:27;99507.96;;;14.53;76.54
76337;BME280;65157;50.082;18.178;2023-08-24T04:44:54;99508.20;;;14.52;76.91
76337;BME280;65157;50.082;18.178;2023-08-24T04:47:21;99506.67;;;14.51;77.04
76337;BME280;65157;50.082;18.178;2023-08-24T04:49:47;99505.34;;;14.52;76.57
76337;BME280;65157;50.082;18.178;2023-08-24T04:52:14;99505.92;;;14.55;76.62
76337;BME280;65157;50.082;18.178;2023-08-24T04:54:41;99506.05;;;14.59;76.57
76337;BME280;65157;50.082;18.178;2023-08-24T04:57:08;99507.27;;;14.62;76.83
76337;BME280;65157;50.082;18.178;2023-08-24T04:59:35;99506.71;;;14.66;76.94
76337;BME280;65157;50.082;18.178;2023-08-24T05:02:02;99508.69;;;14.69;77.06
76337;BME280;65157;50.082;18.178;2023-08-24T05:04:29;99513.22;;;14.74;77.36
76337;BME280;65157;50.082;18.178;2023-08-24T05:06:56;99515.59;;;14.76;77.84
76337;BME280;65157;50.082;18.178;2023-08-24T05:09:22;99514.72;;;14.79;77.90
76337;BME280;65157;50.082;18.178;2023-08-24T05:11:49;99511.27;;;14.80;78.31
76337;BME280;65157;50.082;18.178;2023-08-24T05:14:16;99516.65;;;14.86;77.98
76337;BME280;65157;50.082;18.178;2023-08-24T05:16:43;99514.10;;;14.90;78.35
76337;BME280;65157;50.082;18.178;2023-08-24T05:19:09;99515.20;;;14.96;78.15
76337;BME280;65157;50.082;18.178;2023-08-24T05:21:36;99518.59;;;15.02;78.33
76337;BME280;65157;50.082;18.178;2023-08-24T05:24:03;99524.45;;;15.08;78.59
76337;BME280;65157;50.082;18.178;2023-08-24T05:26:30;99525.58;;;15.13;78.44
76337;BME280;65157;50.082;18.178;2023-08-24T05:28:57;99527.77;;;15.19;78.66
76337;BME280;65157;50.082;18.178;2023-08-24T05:31:24;99524.38;;;15.25;78.57
76337;BME280;65157;50.082;18.178;2023-08-24T05:33:50;99522.72;;;15.32;78.66
76337;BME280;65157;50.082;18.178;2023-08-24T05:36:18;99521.23;;;15.40;78.34
76337;BME280;65157;50.082;18.178;2023-08-24T05:38:45;99522.01;;;15.48;78.53
76337;BME280;65157;50.082;18.178;2023-08-24T05:41:11;99520.19;;;15.58;78.55
76337;BME280;65157;50.082;18.178;2023-08-24T05:43:38;99510.73;;;15.67;78.51
76337;BME280;65157;50.082;18.178;2023-08-24T05:46:05;99510.86;;;15.77;78.17
76337;BME280;65157;50.082;18.178;2023-08-24T05:48:32;99502.80;;;15.87;78.46
76337;BME280;65157;50.082;18.178;2023-08-24T05:50:58;99500.58;;;15.97;78.01
76337;BME280;65157;50.082;18.178;2023-08-24T05:53:25;99507.00;;;16.09;78.44
76337;BME280;65157;50.082;18.178;2023-08-24T05:55:57;99509.85;;;16.20;78.69
76337;BME280;65157;50.082;18.178;2023-08-24T05:58:24;99512.80;;;16.33;78.24
76337;BME280;65157;50.082;18.178;2023-08-24T06:00:56;99509.63;;;16.47;78.55
76337;BME280;65157;50.082;18.178;2023-08-24T06:03:24;99510.67;;;16.62;78.24
76337;BME280;65157;50.082;18.178;2023-08-24T06:05:51;99512.77;;;16.79;77.69
76337;BME280;65157;50.082;18.178;2023-08-24T06:08:18;99515.95;;;16.97;77.50
76337;BME280;65157;50.082;18.178;2023-08-24T06:10:44;99511.52;;;17.13;77.32
76337;BME280;65157;50.082;18.178;2023-08-24T06:13:11;99510.92;;;17.35;76.75
76337;BME280;65157;50.082;18.178;2023-08-24T06:15:38;99510.06;;;17.57;76.33
76337;BME280;65157;50.082;18.178;2023-08-24T06:18:06;99507.46;;;17.79;75.91
76337;BME280;65157;50.082;18.178;2023-08-24T06:20:32;99511.05;;;18.08;75.60
76337;BME280;65157;50.082;18.178;2023-08-24T06:22:59;99508.23;;;18.30;74.71
76337;BME280;65157;50.082;18.178;2023-08-24T06:25:26;99511.08;;;18.51;74.93
76337;BME280;65157;50.082;18.178;2023-08-24T06:27:52;99509.70;;;18.75;74.16
76337;BME280;65157;50.082;18.178;2023-08-24T06:30:19;99501.13;;;18.97;73.29
76337;BME280;65157;50.082;18.178;2023-08-24T06:32:45;99503.14;;;19.19;72.24
76337;BME280;65157;50.082;18.178;2023-08-24T06:35:12;99507.08;;;19.40;72.11
76337;BME280;65157;50.082;18.178;2023-08-24T06:37:38;99498.84;;;19.62;71.35
76337;BME280;65157;50.082;18.178;2023-08-24T06:40:06;99499.57;;;19.81;71.61
76337;BME280;65157;50.082;18.178;2023-08-24T06:42:34;99492.70;;;20.05;71.11
76337;BME280;65157;50.082;18.178;2023-08-24T06:45:00;99492.95;;;20.27;70.81
76337;BME280;65157;50.082;18.178;2023-08-24T06:47:27;99492.27;;;20.52;70.29
76337;BME280;65157;50.082;18.178;2023-08-24T06:49:54;99497.12;;;20.74;69.32
76337;BME280;65157;50.082;18.178;2023-08-24T06:52:20;99492.90;;;20.90;68.64
76337;BME280;65157;50.082;18.178;2023-08-24T06:54:47;99491.98;;;21.06;66.80
76337;BME280;65157;50.082;18.178;2023-08-24T06:57:14;99494.23;;;21.23;66.88
76337;BME280;65157;50.082;18.178;2023-08-24T06:59:40;99495.40;;;21.39;66.25
76337;BME280;65157;50.082;18.178;2023-08-24T07:02:07;99493.77;;;21.54;65.47
76337;BME280;65157;50.082;18.178;2023-08-24T07:04:34;99492.91;;;21.70;65.76
76337;BME280;65157;50.082;18.178;2023-08-24T07:07:01;99491.64;;;21.96;65.23
76337;BME280;65157;50.082;18.178;2023-08-24T07:09:27;99487.41;;;22.22;64.66
76337;BME280;65157;50.082;18.178;2023-08-24T07:11:54;99492.14;;;22.44;64.09
76337;BME280;65157;50.082;18.178;2023-08-24T07:14:21;99489.77;;;22.68;63.75
76337;BME280;65157;50.082;18.178;2023-08-24T07:16:48;99486.55;;;22.93;61.46
76337;BME280;65157;50.082;18.178;2023-08-24T07:19:14;99484.31;;;23.02;60.91
76337;BME280;65157;50.082;18.178;2023-08-24T07:21:41;99484.60;;;23.23;61.32
76337;BME280;65157;50.082;18.178;2023-08-24T07:24:08;99484.95;;;23.49;60.79
76337;BME280;65157;50.082;18.178;2023-08-24T07:26:34;99482.67;;;23.75;60.05
76337;BME280;65157;50.082;18.178;2023-08-24T07:29:01;99489.92;;;23.99;59.38
76337;BME280;65157;50.082;18.178;2023-08-24T07:31:29;99481.02;;;24.21;59.02
76337;BME280;65157;50.082;18.178;2023-08-24T07:33:56;99486.32;;;24.47;58.45
76337;BME280;65157;50.082;18.178;2023-08-24T07:36:24;99486.05;;;24.68;57.26
76337;BME280;65157;50.082;18.178;2023-08-24T07:38:50;99483.98;;;24.85;57.21
76337;BME280;65157;50.082;18.178;2023-08-24T07:41:17;99480.76;;;25.02;56.42
76337;BME280;65157;50.082;18.178;2023-08-24T07:43:44;99482.97;;;25.14;54.25
76337;BME280;65157;50.082;18.178;2023-08-24T07:46:10;99482.52;;;25.12;52.91
76337;BME280;65157;50.082;18.178;2023-08-24T07:48:37;99485.11;;;25.04;52.63
76337;BME280;65157;50.082;18.178;2023-08-24T07:51:04;99486.92;;;25.10;53.96
76337;BME280;65157;50.082;18.178;2023-08-24T07:53:30;99483.70;;;25.23;53.33
76337;BME280;65157;50.082;18.178;2023-08-24T07:55:57;99488.88;;;25.43;52.36
76337;BME280;65157;50.082;18.178;2023-08-24T07:58:24;99482.15;;;25.61;52.86
76337;BME280;65157;50.082;18.178;2023-08-24T08:00:52;99484.95;;;25.85;51.94
76337;BME280;65157;50.082;18.178;2023-08-24T08:03:19;99481.52;;;25.99;49.97
76337;BME280;65157;50.082;18.178;2023-08-24T08:05:47;99481.55;;;25.94;48.22
76337;BME280;65157;50.082;18.178;2023-08-24T08:08:14;99481.06;;;26.01;49.50
76337;BME280;65157;50.082;18.178;2023-08-24T08:10:42;99474.98;;;26.13;48.02
76337;BME280;65157;50.082;18.178;2023-08-24T08:13:09;99471.42;;;26.20;48.08
76337;BME280;65157;50.082;18.178;2023-08-24T08:15:36;99468.67;;;26.34;49.03
76337;BME280;65157;50.082;18.178;2023-08-24T08:18:03;99475.82;;;26.56;48.06
76337;BME280;65157;50.082;18.178;2023-08-24T08:20:30;99476.45;;;26.77;48.77
76337;BME280;65157;50.082;18.178;2023-08-24T08:22:56;99483.77;;;27.03;48.89
76337;BME280;65157;50.082;18.178;2023-08-24T08:25:23;99480.95;;;27.18;46.72
76337;BME280;65157;50.082;18.178;2023-08-24T08:27:50;99482.79;;;27.16;44.16
76337;BME280;65157;50.082;18.178;2023-08-24T08:30:17;99481.77;;;27.02;46.30
76337;BME280;65157;50.082;18.178;2023-08-24T08:32:44;99482.06;;;27.16;47.17
76337;BME280;65157;50.082;18.178;2023-08-24T08:35:12;99484.80;;;27.41;46.36
76337;BME280;65157;50.082;18.178;2023-08-24T08:37:38;99477.48;;;27.60;45.30
76337;BME280;65157;50.082;18.178;2023-08-24T08:40:08;99473.45;;;27.67;45.15
76337;BME280;65157;50.082;18.178;2023-08-24T08:42:37;99473.05;;;27.78;45.05
76337;BME280;65157;50.082;18.178;2023-08-24T08:45:08;99472.29;;;27.92;44.54
76337;BME280;65157;50.082;18.178;2023-08-24T08:47:35;99472.60;;;28.06;43.47
76337;BME280;65157;50.082;18.178;2023-08-24T08:50:04;99470.33;;;28.01;42.49
76337;BME280;65157;50.082;18.178;2023-08-24T08:52:31;99468.61;;;27.86;43.47
76337;BME280;65157;50.082;18.178;2023-08-24T08:55:01;99471.23;;;27.77;42.31
76337;BME280;65157;50.082;18.178;2023-08-24T08:57:28;99471.45;;;27.75;44.27
76337;BME280;65157;50.082;18.178;2023-08-24T08:59:55;99472.73;;;27.94;45.03
76337;BME280;65157;50.082;18.178;2023-08-24T09:02:23;99468.58;;;28.14;44.01
76337;BME280;65157;50.082;18.178;2023-08-24T09:04:51;99465.56;;;28.40;43.74
76337;BME280;65157;50.082;18.178;2023-08-24T09:07:18;99463.90;;;28.67;43.49
76337;BME280;65157;50.082;18.178;2023-08-24T09:09:44;99464.80;;;28.78;42.66
76337;BME280;65157;50.082;18.178;2023-08-24T09:12:11;99463.27;;;28.86;42.22
76337;BME280;65157;50.082;18.178;2023-08-24T09:14:37;99461.34;;;28.95;42.32
76337;BME280;65157;50.082;18.178;2023-08-24T09:17:04;99458.18;;;29.08;42.90
76337;BME280;65157;50.082;18.178;2023-08-24T09:19:33;99454.92;;;29.31;42.87
76337;BME280;65157;50.082;18.178;2023-08-24T09:22:01;99449.94;;;29.56;42.71
76337;BME280;65157;50.082;18.178;2023-08-24T09:24:32;99446.13;;;29.76;42.36
76337;BME280;65157;50.082;18.178;2023-08-24T09:27:03;99447.42;;;29.93;41.02
76337;BME280;65157;50.082;18.178;2023-08-24T09:29:40;99444.09;;;30.04;40.90
76337;BME280;65157;50.082;18.178;2023-08-24T09:32:08;99446.40;;;30.18;40.89
76337;BME280;65157;50.082;18.178;2023-08-24T09:34:36;99448.19;;;30.35;39.83
76337;BME280;65157;50.082;18.178;2023-08-24T09:37:03;99447.08;;;30.50;39.91
76337;BME280;65157;50.082;18.178;2023-08-24T09:39:30;99447.16;;;30.67;39.03
76337;BME280;65157;50.082;18.178;2023-08-24T09:42:00;99446.23;;;30.73;37.93
76337;BME280;65157;50.082;18.178;2023-08-24T09:44:28;99440.33;;;30.67;38.32
76337;BME280;65157;50.082;18.178;2023-08-24T09:46:57;99436.20;;;30.71;39.59
76337;BME280;65157;50.082;18.178;2023-08-24T09:49:23;99434.08;;;30.78;38.80
76337;BME280;65157;50.082;18.178;2023-08-24T09:51:52;99428.10;;;30.87;38.28
76337;BME280;65157;50.082;18.178;2023-08-24T09:54:26;99422.44;;;30.91;38.09
76337;BME280;65157;50.082;18.178;2023-08-24T09:56:55;99423.18;;;30.97;37.27
76337;BME280;65157;50.082;18.178;2023-08-24T09:59:22;99424.22;;;31.12;38.14
76337;BME280;65157;50.082;18.178;2023-08-24T10:01:51;99420.23;;;31.23;36.99
76337;BME280;65157;50.082;18.178;2023-08-24T10:04:24;99420.89;;;31.29;36.98
76337;BME280;65157;50.082;18.178;2023-08-24T10:06:55;99418.55;;;31.41;38.20
76337;BME280;65157;50.082;18.178;2023-08-24T10:09:27;99416.04;;;31.62;37.76
76337;BME280;65157;50.082;18.178;2023-08-24T10:12:00;99412.94;;;31.72;35.68
76337;BME280;65157;50.082;18.178;2023-08-24T10:14:32;99407.47;;;31.73;35.53
76337;BME280;65157;50.082;18.178;2023-08-24T10:17:00;99407.16;;;31.80;35.72
76337;BME280;65157;50.082;18.178;2023-08-24T10:19:27;99404.97;;;31.80;35.56
76337;BME280;65157;50.082;18.178;2023-08-24T10:21:55;99402.81;;;31.75;34.85
76337;BME280;65157;50.082;18.178;2023-08-24T10:24:23;99407.81;;;31.62;35.86
76337;BME280;65157;50.082;18.178;2023-08-24T10:26:51;99410.66;;;31.53;34.52
76337;BME280;65157;50.082;18.178;2023-08-24T10:29:20;99412.78;;;31.38;34.28
76337;BME280;65157;50.082;18.178;2023-08-24T10:31:48;99404.83;;;31.44;34.53
76337;BME280;65157;50.082;18.178;2023-08-24T10:34:16;99405.64;;;31.42;33.19
76337;BME280;65157;50.082;18.178;2023-08-24T10:36:43;99400.80;;;31.39;33.63
76337;BME280;65157;50.082;18.178;2023-08-24T10:39:09;99395.55;;;31.44;34.12
76337;BME280;65157;50.082;18.178;2023-08-24T10:41:47;99390.08;;;31.50;34.11
76337;BME280;65157;50.082;18.178;2023-08-24T10:44:33;99383.73;;;31.55;34.30
76337;BME280;65157;50.082;18.178;2023-08-24T10:47:20;99383.53;;;31.64;34.00
76337;BME280;65157;50.082;18.178;2023-08-24T10:52:32;99374.21;;;31.91;33.12
76337;BME280;65157;50.082;18.178;2023-08-24T10:55:05;99376.77;;;31.74;33.34
76337;BME280;65157;50.082;18.178;2023-08-24T10:58:04;99368.52;;;31.56;32.62
76337;BME280;65157;50.082;18.178;2023-08-24T11:00:31;99369.15;;;31.58;33.24
76337;BME280;65157;50.082;18.178;2023-08-24T11:02:57;99364.48;;;31.67;33.14
76337;BME280;65157;50.082;18.178;2023-08-24T11:05:27;99369.53;;;31.66;31.83
76337;BME280;65157;50.082;18.178;2023-08-24T11:10:22;99362.88;;;31.40;33.53
76337;BME280;65157;50.082;18.178;2023-08-24T11:13:05;99359.55;;;31.53;34.46
76337;BME280;65157;50.082;18.178;2023-08-24T11:15:32;99356.52;;;31.71;33.24
76337;BME280;65157;50.082;18.178;2023-08-24T11:20:45;99351.52;;;31.91;33.22
76337;BME280;65157;50.082;18.178;2023-08-24T11:23:14;99347.93;;;31.90;32.91
76337;BME280;65157;50.082;18.178;2023-08-24T11:25:41;99346.21;;;31.97;34.18
76337;BME280;65157;50.082;18.178;2023-08-24T11:28:08;99345.50;;;32.02;32.52
76337;BME280;65157;50.082;18.178;2023-08-24T11:30:37;99337.45;;;32.05;33.29
76337;BME280;65157;50.082;18.178;2023-08-24T11:33:03;99338.10;;;32.20;32.66
76337;BME280;65157;50.082;18.178;2023-08-24T11:35:35;99329.20;;;32.30;32.02
76337;BME280;65157;50.082;18.178;2023-08-24T11:38:02;99334.67;;;32.41;32.29
76337;BME280;65157;50.082;18.178;2023-08-24T11:40:28;99333.96;;;32.44;32.51
76337;BME280;65157;50.082;18.178;2023-08-24T11:42:56;99336.39;;;32.32;31.35
76337;BME280;65157;50.082;18.178;2023-08-24T11:45:23;99331.54;;;32.14;32.02
76337;BME280;65157;50.082;18.178;2023-08-24T11:47:50;99328.77;;;32.17;32.84
76337;BME280;65157;50.082;18.178;2023-08-24T11:50:17;99321.90;;;32.11;31.12
76337;BME280;65157;50.082;18.178;2023-08-24T11:52:44;99321.27;;;31.99;32.31
76337;BME280;65157;50.082;18.178;2023-08-24T11:55:11;99314.70;;;31.87;31.59
76337;BME280;65157;50.082;18.178;2023-08-24T11:57:38;99311.36;;;31.71;32.53
76337;BME280;65157;50.082;18.178;2023-08-24T12:00:05;99306.20;;;31.74;32.03
76337;BME280;65157;50.082;18.178;2023-08-24T12:02:32;99308.80;;;31.70;32.43
76337;BME280;65157;50.082;18.178;2023-08-24T12:05:01;99310.19;;;31.72;33.50
76337;BME280;65157;50.082;18.178;2023-08-24T12:07:32;99308.52;;;31.79;32.63
76337;BME280;65157;50.082;18.178;2023-08-24T12:10:02;99313.41;;;31.85;32.86
76337;BME280;65157;50.082;18.178;2023-08-24T12:12:30;99309.16;;;32.00;33.06
76337;BME280;65157;50.082;18.178;2023-08-24T12:14:58;99306.70;;;32.08;33.19
76337;BME280;65157;50.082;18.178;2023-08-24T12:17:24;99300.92;;;32.22;32.67
76337;BME280;65157;50.082;18.178;2023-08-24T12:19:59;99293.66;;;32.18;32.15
76337;BME280;65157;50.082;18.178;2023-08-24T12:22:26;99292.02;;;32.16;31.77
76337;BME280;65157;50.082;18.178;2023-08-24T12:24:53;99287.00;;;32.05;31.14
76337;BME280;65157;50.082;18.178;2023-08-24T12:27:22;99284.77;;;31.92;31.08
76337;BME280;65157;50.082;18.178;2023-08-24T12:29:49;99278.57;;;31.79;31.84
76337;BME280;65157;50.082;18.178;2023-08-24T12:32:17;99281.33;;;31.71;31.86
76337;BME280;65157;50.082;18.178;2023-08-24T12:34:43;99277.73;;;31.56;32.55
76337;BME280;65157;50.082;18.178;2023-08-24T12:37:10;99273.76;;;31.45;32.38
76337;BME280;65157;50.082;18.178;2023-08-24T12:39:37;99275.16;;;31.44;32.83
76337;BME280;65157;50.082;18.178;2023-08-24T12:42:04;99272.09;;;31.46;32.89
76337;BME280;65157;50.082;18.178;2023-08-24T12:44:30;99271.12;;;31.47;33.87
76337;BME280;65157;50.082;18.178;2023-08-24T12:46:57;99276.02;;;31.45;32.65
76337;BME280;65157;50.082;18.178;2023-08-24T12:49:24;99275.68;;;31.35;32.08
76337;BME280;65157;50.082;18.178;2023-08-24T12:51:50;99272.40;;;31.43;32.60
76337;BME280;65157;50.082;18.178;2023-08-24T12:54:17;99265.63;;;31.57;32.35
76337;BME280;65157;50.082;18.178;2023-08-24T12:56:44;99257.48;;;31.65;31.42
76337;BME280;65157;50.082;18.178;2023-08-24T12:59:10;99242.14;;;31.74;32.24
76337;BME280;65157;50.082;18.178;2023-08-24T13:01:37;99240.52;;;31.89;32.80
76337;BME280;65157;50.082;18.178;2023-08-24T13:04:05;99232.36;;;31.93;32.15